KPSK

New River Valley Airport

Dublin, Virginia, USA
METAR KPSK 151610Z AUTO 00000KT 1/4SM FG OVC003 04/04 A2998 RMK AO2 T00410041
Observed Flight Rules
Dec-15 @ 16:10 UTC (28 minutes ago) Instrument Flight Rules
Visibility Clouds Conditions
1/4 miles
  • Overcast at 300' AGL
  • Fog
Temperatures Readings
Current 4°C / 39°F
Dewpoint 4°C / 39°F
Humidity 100%
Altimeter 29.98" Hg
Pressure 1015 hPa
Elevation 642
METAR KPSK 151610Z AUTO 00000KT 1/4SM FG OVC003 04/04 A2998 RMK AO2 T00410041
Observed Flight Rules
Dec-15 @ 16:10 UTC
(28 minutes ago)
LIFR
Clouds
  • Overcast at 300' AGL
Conditions
  • Fog
Temperature Dewpoint
4°C / 39°F 4°C / 39°F
Humidity Altimeter Pressure
100% 29.98" Hg 1015 hPa